sensor_id;sensor_type;location;lat;lon;timestamp;pressure;altitude;pressure_sealevel;temperature;humidity
54389;BME280;40975;50.390;8.640;2023-04-05T00:00:57;99803.34;;;-1.66;100.00
54389;BME280;40975;50.390;8.640;2023-04-05T00:03:22;99792.09;;;-1.67;100.00
54389;BME280;40975;50.390;8.640;2023-04-05T00:05:48;99801.88;;;-1.74;100.00
54389;BME280;40975;50.390;8.640;2023-04-05T00:08:14;99798.16;;;-1.66;100.00
54389;BME280;40975;50.390;8.640;2023-04-05T00:10:48;99802.53;;;-1.67;100.00
54389;BME280;40975;50.390;8.640;2023-04-05T00:13:13;99800.81;;;-1.68;100.00
54389;BME280;40975;50.390;8.640;2023-04-05T00:15:38;99798.16;;;-1.66;100.00
54389;BME280;40975;50.390;8.640;2023-04-05T00:18:05;99803.56;;;-1.73;100.00
54389;BME280;40975;50.390;8.640;2023-04-05T00:20:30;99806.19;;;-1.73;100.00
54389;BME280;40975;50.390;8.640;2023-04-05T00:22:56;99804.47;;;-1.74;100.00
54389;BME280;40975;50.390;8.640;2023-04-05T00:25:21;99803.03;;;-1.82;100.00
54389;BME280;40975;50.390;8.640;2023-04-05T00:27:46;99803.19;;;-1.87;100.00
54389;BME280;40975;50.390;8.640;2023-04-05T00:30:12;99806.72;;;-1.90;100.00
54389;BME280;40975;50.390;8.640;2023-04-05T00:32:46;99787.88;;;-1.96;100.00
54389;BME280;40975;50.390;8.640;2023-04-05T00:35:12;99793.78;;;-1.91;100.00
54389;BME280;40975;50.390;8.640;2023-04-05T00:37:37;99794.88;;;-1.98;100.00
54389;BME280;40975;50.390;8.640;2023-04-05T00:40:03;99798.28;;;-1.96;100.00
54389;BME280;40975;50.390;8.640;2023-04-05T00:42:28;99797.53;;;-2.00;100.00
54389;BME280;40975;50.390;8.640;2023-04-05T00:44:54;99782.97;;;-2.06;100.00
54389;BME280;40975;50.390;8.640;2023-04-05T00:47:19;99793.44;;;-2.07;100.00
54389;BME280;40975;50.390;8.640;2023-04-05T00:49:47;99785.63;;;-2.07;100.00
54389;BME280;40975;50.390;8.640;2023-04-05T00:52:12;99792.69;;;-2.11;100.00
54389;BME280;40975;50.390;8.640;2023-04-05T00:54:38;99791.13;;;-2.16;100.00
54389;BME280;40975;50.390;8.640;2023-04-05T00:57:04;99780.69;;;-2.15;100.00
54389;BME280;40975;50.390;8.640;2023-04-05T00:59:31;99779.72;;;-2.12;100.00
54389;BME280;40975;50.390;8.640;2023-04-05T01:02:33;99775.41;;;-2.13;100.00
54389;BME280;40975;50.390;8.640;2023-04-05T01:05:13;99773.91;;;-2.21;100.00
54389;BME280;40975;50.390;8.640;2023-04-05T01:07:45;99769.47;;;-2.17;100.00
54389;BME280;40975;50.390;8.640;2023-04-05T01:10:16;99772.03;;;-2.15;100.00
54389;BME280;40975;50.390;8.640;2023-04-05T01:12:44;99771.91;;;-2.12;100.00
54389;BME280;40975;50.390;8.640;2023-04-05T01:15:10;99757.25;;;-2.15;100.00
54389;BME280;40975;50.390;8.640;2023-04-05T01:17:36;99765.72;;;-2.08;100.00
54389;BME280;40975;50.390;8.640;2023-04-05T01:20:06;99760.47;;;-2.07;100.00
54389;BME280;40975;50.390;8.640;2023-04-05T01:25:19;99758.81;;;-2.09;100.00
54389;BME280;40975;50.390;8.640;2023-04-05T01:30:50;99754.19;;;-2.01;100.00
54389;BME280;40975;50.390;8.640;2023-04-05T01:33:29;99750.84;;;-2.05;100.00
54389;BME280;40975;50.390;8.640;2023-04-05T01:36:03;99755.22;;;-2.05;100.00
54389;BME280;40975;50.390;8.640;2023-04-05T01:38:37;99748.78;;;-2.20;100.00
54389;BME280;40975;50.390;8.640;2023-04-05T01:41:03;99749.75;;;-2.24;100.00
54389;BME280;40975;50.390;8.640;2023-04-05T01:43:28;99749.69;;;-2.23;100.00
54389;BME280;40975;50.390;8.640;2023-04-05T01:45:54;99751.91;;;-2.37;100.00
54389;BME280;40975;50.390;8.640;2023-04-05T01:48:19;99756.31;;;-2.39;100.00
54389;BME280;40975;50.390;8.640;2023-04-05T01:50:45;99746.19;;;-2.48;100.00
54389;BME280;40975;50.390;8.640;2023-04-05T01:53:11;99744.59;;;-2.53;100.00
54389;BME280;40975;50.390;8.640;2023-04-05T01:55:36;99746.50;;;-2.58;100.00
54389;BME280;40975;50.390;8.640;2023-04-05T01:58:02;99732.91;;;-2.66;100.00
54389;BME280;40975;50.390;8.640;2023-04-05T02:00:27;99744.66;;;-2.54;100.00
54389;BME280;40975;50.390;8.640;2023-04-05T02:02:53;99748.09;;;-2.54;100.00
54389;BME280;40975;50.390;8.640;2023-04-05T02:05:18;99745.34;;;-2.49;100.00
54389;BME280;40975;50.390;8.640;2023-04-05T02:07:43;99743.81;;;-2.55;100.00
54389;BME280;40975;50.390;8.640;2023-04-05T02:10:09;99737.09;;;-2.62;100.00
54389;BME280;40975;50.390;8.640;2023-04-05T02:12:34;99744.78;;;-2.59;100.00
54389;BME280;40975;50.390;8.640;2023-04-05T02:14:59;99743.09;;;-2.60;100.00
54389;BME280;40975;50.390;8.640;2023-04-05T02:17:25;99742.28;;;-2.62;100.00
54389;BME280;40975;50.390;8.640;2023-04-05T02:19:59;99736.34;;;-2.66;100.00
54389;BME280;40975;50.390;8.640;2023-04-05T02:22:35;99733.88;;;-2.70;100.00
54389;BME280;40975;50.390;8.640;2023-04-05T02:25:02;99725.47;;;-2.78;100.00
54389;BME280;40975;50.390;8.640;2023-04-05T02:27:28;99741.13;;;-2.80;100.00
54389;BME280;40975;50.390;8.640;2023-04-05T02:29:54;99738.13;;;-2.96;100.00
54389;BME280;40975;50.390;8.640;2023-04-05T02:32:21;99736.31;;;-2.94;100.00
54389;BME280;40975;50.390;8.640;2023-04-05T02:34:47;99740.94;;;-3.04;100.00
54389;BME280;40975;50.390;8.640;2023-04-05T02:37:12;99740.75;;;-2.98;100.00
54389;BME280;40975;50.390;8.640;2023-04-05T02:39:38;99740.75;;;-2.98;100.00
54389;BME280;40975;50.390;8.640;2023-04-05T02:42:04;99740.66;;;-2.94;100.00
54389;BME280;40975;50.390;8.640;2023-04-05T02:44:29;99738.00;;;-2.91;100.00
54389;BME280;40975;50.390;8.640;2023-04-05T02:46:55;99740.44;;;-2.87;100.00
54389;BME280;40975;50.390;8.640;2023-04-05T02:49:26;99741.47;;;-2.92;100.00
54389;BME280;40975;50.390;8.640;2023-04-05T02:51:52;99735.47;;;-2.94;100.00
54389;BME280;40975;50.390;8.640;2023-04-05T02:54:19;99732.06;;;-2.97;100.00
54389;BME280;40975;50.390;8.640;2023-04-05T02:56:45;99737.25;;;-2.97;100.00
54389;BME280;40975;50.390;8.640;2023-04-05T02:59:13;99729.00;;;-3.09;100.00
54389;BME280;40975;50.390;8.640;2023-04-05T03:01:41;99730.75;;;-3.10;100.00
54389;BME280;40975;50.390;8.640;2023-04-05T03:04:09;99733.47;;;-3.15;100.00
54389;BME280;40975;50.390;8.640;2023-04-05T03:06:38;99733.38;;;-3.12;100.00
54389;BME280;40975;50.390;8.640;2023-04-05T03:09:13;99731.91;;;-3.20;100.00
54389;BME280;40975;50.390;8.640;2023-04-05T03:11:39;99730.84;;;-3.13;100.00
54389;BME280;40975;50.390;8.640;2023-04-05T03:14:04;99723.00;;;-3.12;100.00
54389;BME280;40975;50.390;8.640;2023-04-05T03:16:37;99728.94;;;-3.08;100.00
54389;BME280;40975;50.390;8.640;2023-04-05T03:19:11;99719.69;;;-3.17;100.00
54389;BME280;40975;50.390;8.640;2023-04-05T03:21:41;99713.47;;;-3.11;100.00
54389;BME280;40975;50.390;8.640;2023-04-05T03:24:20;99713.63;;;-3.17;100.00
54389;BME280;40975;50.390;8.640;2023-04-05T03:26:46;99721.41;;;-3.16;100.00
54389;BME280;40975;50.390;8.640;2023-04-05T03:29:15;99719.56;;;-3.12;100.00
54389;BME280;40975;50.390;8.640;2023-04-05T03:31:41;99716.59;;;-3.30;100.00
54389;BME280;40975;50.390;8.640;2023-04-05T03:34:08;99716.63;;;-3.31;100.00
54389;BME280;40975;50.390;8.640;2023-04-05T03:36:41;99725.16;;;-3.26;100.00
54389;BME280;40975;50.390;8.640;2023-04-05T03:39:11;99718.94;;;-3.20;100.00
54389;BME280;40975;50.390;8.640;2023-04-05T03:41:38;99718.81;;;-3.17;100.00
54389;BME280;40975;50.390;8.640;2023-04-05T03:44:05;99716.16;;;-3.14;100.00
54389;BME280;40975;50.390;8.640;2023-04-05T03:46:30;99708.28;;;-3.13;100.00
54389;BME280;40975;50.390;8.640;2023-04-05T03:48:56;99704.81;;;-3.12;100.00
54389;BME280;40975;50.390;8.640;2023-04-05T03:51:22;99704.88;;;-3.13;100.00
54389;BME280;40975;50.390;8.640;2023-04-05T03:53:49;99705.81;;;-3.16;100.00
54389;BME280;40975;50.390;8.640;2023-04-05T03:56:15;99697.16;;;-3.16;100.00
54389;BME280;40975;50.390;8.640;2023-04-05T03:58:44;99703.84;;;-3.09;100.00
54389;BME280;40975;50.390;8.640;2023-04-05T04:01:11;99713.63;;;-3.17;100.00
54389;BME280;40975;50.390;8.640;2023-04-05T04:03:37;99686.22;;;-3.28;100.00
54389;BME280;40975;50.390;8.640;2023-04-05T04:06:03;99702.44;;;-3.19;100.00
54389;BME280;40975;50.390;8.640;2023-04-05T04:08:28;99698.25;;;-3.23;100.00
54389;BME280;40975;50.390;8.640;2023-04-05T04:10:57;99699.94;;;-3.22;100.00
54389;BME280;40975;50.390;8.640;2023-04-05T04:13:25;99703.56;;;-3.28;100.00
54389;BME280;40975;50.390;8.640;2023-04-05T04:16:06;99702.00;;;-3.34;100.00
54389;BME280;40975;50.390;8.640;2023-04-05T04:18:52;99697.69;;;-3.35;100.00
54389;BME280;40975;50.390;8.640;2023-04-05T04:21:24;99703.84;;;-3.37;100.00
54389;BME280;40975;50.390;8.640;2023-04-05T04:24:01;99682.41;;;-3.44;100.00
54389;BME280;40975;50.390;8.640;2023-04-05T04:27:04;99711.50;;;-3.34;100.00
54389;BME280;40975;50.390;8.640;2023-04-05T04:30:08;99702.97;;;-3.38;100.00
54389;BME280;40975;50.390;8.640;2023-04-05T04:32:46;99715.25;;;-3.43;100.00
54389;BME280;40975;50.390;8.640;2023-04-05T04:35:39;99707.59;;;-3.48;100.00
54389;BME280;40975;50.390;8.640;2023-04-05T04:38:19;99701.41;;;-3.44;100.00
54389;BME280;40975;50.390;8.640;2023-04-05T04:41:09;99702.25;;;-3.43;100.00
54389;BME280;40975;50.390;8.640;2023-04-05T04:43:46;99711.75;;;-3.42;100.00
54389;BME280;40975;50.390;8.640;2023-04-05T04:46:11;99713.47;;;-3.41;100.00
54389;BME280;40975;50.390;8.640;2023-04-05T04:48:54;99707.47;;;-3.43;100.00
54389;BME280;40975;50.390;8.640;2023-04-05T04:51:29;99695.25;;;-3.39;100.00
54389;BME280;40975;50.390;8.640;2023-04-05T04:53:54;99703.91;;;-3.40;100.00
54389;BME280;40975;50.390;8.640;2023-04-05T04:56:19;99697.91;;;-3.42;100.00
54389;BME280;40975;50.390;8.640;2023-04-05T04:58:46;99704.09;;;-3.47;100.00
54389;BME280;40975;50.390;8.640;2023-04-05T05:01:12;99703.09;;;-3.42;100.00
54389;BME280;40975;50.390;8.640;2023-04-05T05:03:37;99698.09;;;-3.49;100.00
54389;BME280;40975;50.390;8.640;2023-04-05T05:06:03;99700.69;;;-3.49;100.00
54389;BME280;40975;50.390;8.640;2023-04-05T05:08:31;99700.69;;;-3.49;100.00
54389;BME280;40975;50.390;8.640;2023-04-05T05:10:56;99698.91;;;-3.47;100.00
54389;BME280;40975;50.390;8.640;2023-04-05T05:13:22;99705.25;;;-3.57;100.00
54389;BME280;40975;50.390;8.640;2023-04-05T05:15:47;99706.91;;;-3.54;100.00
54389;BME280;40975;50.390;8.640;2023-04-05T05:18:13;99713.72;;;-3.50;100.00
54389;BME280;40975;50.390;8.640;2023-04-05T05:20:38;99700.06;;;-3.57;100.00
54389;BME280;40975;50.390;8.640;2023-04-05T05:23:05;99709.25;;;-3.45;100.00
54389;BME280;40975;50.390;8.640;2023-04-05T05:25:30;99715.03;;;-3.35;100.00
54389;BME280;40975;50.390;8.640;2023-04-05T05:27:56;99719.22;;;-3.31;100.00
54389;BME280;40975;50.390;8.640;2023-04-05T05:30:23;99712.16;;;-3.26;100.00
54389;BME280;40975;50.390;8.640;2023-04-05T05:32:48;99715.41;;;-3.19;100.00
54389;BME280;40975;50.390;8.640;2023-04-05T05:35:13;99717.03;;;-3.15;100.00
54389;BME280;40975;50.390;8.640;2023-04-05T05:37:39;99722.22;;;-3.15;100.00
54389;BME280;40975;50.390;8.640;2023-04-05T05:40:05;99710.91;;;-3.13;100.00
54389;BME280;40975;50.390;8.640;2023-04-05T05:42:31;99717.50;;;-3.02;100.00
54389;BME280;40975;50.390;8.640;2023-04-05T05:45:01;99717.16;;;-2.90;100.00
54389;BME280;40975;50.390;8.640;2023-04-05T05:47:26;99716.88;;;-2.81;100.00
54389;BME280;40975;50.390;8.640;2023-04-05T05:49:51;99722.66;;;-2.71;100.00
54389;BME280;40975;50.390;8.640;2023-04-05T05:52:16;99723.13;;;-2.59;100.00
54389;BME280;40975;50.390;8.640;2023-04-05T05:54:42;99723.78;;;-2.53;100.00
54389;BME280;40975;50.390;8.640;2023-04-05T05:57:07;99721.84;;;-2.46;100.00
54389;BME280;40975;50.390;8.640;2023-04-05T05:59:32;99716.16;;;-2.30;100.00
54389;BME280;40975;50.390;8.640;2023-04-05T06:01:58;99721.81;;;-2.17;100.00
54389;BME280;40975;50.390;8.640;2023-04-05T06:04:23;99734.34;;;-2.04;100.00
54389;BME280;40975;50.390;8.640;2023-04-05T06:06:49;99726.13;;;-1.91;100.00
54389;BME280;40975;50.390;8.640;2023-04-05T06:09:14;99719.72;;;-1.81;100.00
54389;BME280;40975;50.390;8.640;2023-04-05T06:11:40;99729.63;;;-1.67;100.00
54389;BME280;40975;50.390;8.640;2023-04-05T06:14:06;99721.34;;;-1.53;100.00
54389;BME280;40975;50.390;8.640;2023-04-05T06:16:31;99728.75;;;-1.42;100.00
54389;BME280;40975;50.390;8.640;2023-04-05T06:18:56;99721.31;;;-1.29;100.00
54389;BME280;40975;50.390;8.640;2023-04-05T06:21:22;99724.22;;;-1.13;100.00
54389;BME280;40975;50.390;8.640;2023-04-05T06:23:48;99722.56;;;-0.92;100.00
54389;BME280;40975;50.390;8.640;2023-04-05T06:26:21;99728.44;;;-0.65;100.00
54389;BME280;40975;50.390;8.640;2023-04-05T06:28:48;99724.94;;;-0.41;100.00
54389;BME280;40975;50.390;8.640;2023-04-05T06:31:15;99733.06;;;-0.06;100.00
54389;BME280;40975;50.390;8.640;2023-04-05T06:33:42;99730.78;;;0.48;100.00
54389;BME280;40975;50.390;8.640;2023-04-05T06:36:07;99732.34;;;1.48;100.00
54389;BME280;40975;50.390;8.640;2023-04-05T06:38:33;99730.13;;;2.95;91.81
54389;BME280;40975;50.390;8.640;2023-04-05T06:40:58;99723.31;;;4.46;82.44
54389;BME280;40975;50.390;8.640;2023-04-05T06:43:23;99731.03;;;5.35;70.39
54389;BME280;40975;50.390;8.640;2023-04-05T06:45:49;99740.53;;;6.58;66.36
54389;BME280;40975;50.390;8.640;2023-04-05T06:48:14;99732.28;;;6.76;64.29
54389;BME280;40975;50.390;8.640;2023-04-05T06:50:39;99735.19;;;7.71;61.43
54389;BME280;40975;50.390;8.640;2023-04-05T06:53:05;99736.19;;;8.29;58.65
54389;BME280;40975;50.390;8.640;2023-04-05T06:55:31;99735.56;;;8.14;57.37
54389;BME280;40975;50.390;8.640;2023-04-05T06:57:57;99734.97;;;8.21;56.48
54389;BME280;40975;50.390;8.640;2023-04-05T07:00:22;99734.50;;;8.63;54.30
54389;BME280;40975;50.390;8.640;2023-04-05T07:02:48;99734.66;;;8.37;54.50
54389;BME280;40975;50.390;8.640;2023-04-05T07:05:13;99732.94;;;7.89;55.21
54389;BME280;40975;50.390;8.640;2023-04-05T07:07:40;99729.09;;;7.82;56.20
54389;BME280;40975;50.390;8.640;2023-04-05T07:10:07;99730.44;;;7.63;56.50
54389;BME280;40975;50.390;8.640;2023-04-05T07:12:32;99728.69;;;7.51;56.94
54389;BME280;40975;50.390;8.640;2023-04-05T07:14:58;99733.34;;;7.96;55.14
54389;BME280;40975;50.390;8.640;2023-04-05T07:17:24;99735.41;;;8.39;55.44
54389;BME280;40975;50.390;8.640;2023-04-05T07:19:50;99721.09;;;8.42;54.46
54389;BME280;40975;50.390;8.640;2023-04-05T07:22:15;99729.81;;;8.78;54.68
54389;BME280;40975;50.390;8.640;2023-04-05T07:24:40;99727.63;;;9.06;53.84
54389;BME280;40975;50.390;8.640;2023-04-05T07:27:06;99728.97;;;8.78;53.86
54389;BME280;40975;50.390;8.640;2023-04-05T07:29:31;99728.00;;;8.79;55.02
54389;BME280;40975;50.390;8.640;2023-04-05T07:31:58;99727.19;;;8.78;54.95
54389;BME280;40975;50.390;8.640;2023-04-05T07:34:24;99732.22;;;8.93;52.25
54389;BME280;40975;50.390;8.640;2023-04-05T07:36:49;99727.78;;;8.93;54.43
54389;BME280;40975;50.390;8.640;2023-04-05T07:39:14;99723.22;;;8.25;55.75
54389;BME280;40975;50.390;8.640;2023-04-05T07:41:40;99728.59;;;8.24;55.58
54389;BME280;40975;50.390;8.640;2023-04-05T07:44:06;99728.53;;;8.25;55.83
54389;BME280;40975;50.390;8.640;2023-04-05T07:46:31;99723.28;;;8.01;56.65
54389;BME280;40975;50.390;8.640;2023-04-05T07:48:56;99719.47;;;7.81;56.71
54389;BME280;40975;50.390;8.640;2023-04-05T07:51:22;99723.94;;;8.39;56.78
54389;BME280;40975;50.390;8.640;2023-04-05T07:53:47;99727.66;;;8.83;54.77
54389;BME280;40975;50.390;8.640;2023-04-05T07:56:13;99729.63;;;9.37;52.23
54389;BME280;40975;50.390;8.640;2023-04-05T07:58:39;99731.19;;;9.39;52.59
54389;BME280;40975;50.390;8.640;2023-04-05T08:01:06;99734.03;;;9.91;51.74
54389;BME280;40975;50.390;8.640;2023-04-05T08:03:32;99732.16;;;10.67;50.24
54389;BME280;40975;50.390;8.640;2023-04-05T08:06:08;99726.13;;;10.86;46.76
54389;BME280;40975;50.390;8.640;2023-04-05T08:08:33;99729.06;;;11.63;44.40
54389;BME280;40975;50.390;8.640;2023-04-05T08:11:04;99725.63;;;11.92;42.73
54389;BME280;40975;50.390;8.640;2023-04-05T08:13:29;99725.19;;;11.77;42.55
54389;BME280;40975;50.390;8.640;2023-04-05T08:15:55;99723.94;;;12.01;41.25
54389;BME280;40975;50.390;8.640;2023-04-05T08:18:21;99718.31;;;12.81;39.40
54389;BME280;40975;50.390;8.640;2023-04-05T08:20:53;99728.09;;;13.46;36.79
54389;BME280;40975;50.390;8.640;2023-04-05T08:23:19;99727.50;;;13.70;36.78
54389;BME280;40975;50.390;8.640;2023-04-05T08:25:44;99724.97;;;14.49;34.84
54389;BME280;40975;50.390;8.640;2023-04-05T08:28:10;99722.81;;;15.14;33.55
54389;BME280;40975;50.390;8.640;2023-04-05T08:30:35;99723.34;;;15.85;33.28
54389;BME280;40975;50.390;8.640;2023-04-05T08:33:01;99716.59;;;15.81;33.21
54389;BME280;40975;50.390;8.640;2023-04-05T08:35:26;99723.06;;;15.53;33.46
54389;BME280;40975;50.390;8.640;2023-04-05T08:37:51;99725.50;;;16.06;31.72
54389;BME280;40975;50.390;8.640;2023-04-05T08:40:17;99729.03;;;16.23;31.27
54389;BME280;40975;50.390;8.640;2023-04-05T08:42:51;99724.16;;;15.94;30.92
54389;BME280;40975;50.390;8.640;2023-04-05T08:45:19;99725.47;;;16.47;32.57
54389;BME280;40975;50.390;8.640;2023-04-05T08:47:48;99724.00;;;17.09;31.78
54389;BME280;40975;50.390;8.640;2023-04-05T08:50:13;99719.59;;;16.60;31.18
54389;BME280;40975;50.390;8.640;2023-04-05T08:52:39;99721.00;;;16.23;32.35
54389;BME280;40975;50.390;8.640;2023-04-05T08:55:07;99719.53;;;16.77;31.02
54389;BME280;40975;50.390;8.640;2023-04-05T08:57:36;99727.22;;;17.60;30.67
54389;BME280;40975;50.390;8.640;2023-04-05T09:00:05;99722.44;;;18.01;28.72
54389;BME280;40975;50.390;8.640;2023-04-05T09:02:36;99720.66;;;18.32;28.92
54389;BME280;40975;50.390;8.640;2023-04-05T09:05:02;99726.75;;;18.94;26.99
54389;BME280;40975;50.390;8.640;2023-04-05T09:07:28;99724.31;;;18.16;29.56
54389;BME280;40975;50.390;8.640;2023-04-05T09:09:56;99722.69;;;16.89;28.80
54389;BME280;40975;50.390;8.640;2023-04-05T09:12:24;99719.25;;;18.21;29.07
54389;BME280;40975;50.390;8.640;2023-04-05T09:14:51;99721.72;;;19.21;29.04
54389;BME280;40975;50.390;8.640;2023-04-05T09:17:17;99720.44;;;17.95;29.03
54389;BME280;40975;50.390;8.640;2023-04-05T09:19:43;99720.03;;;18.60;28.33
54389;BME280;40975;50.390;8.640;2023-04-05T09:22:09;99716.16;;;19.07;27.42
54389;BME280;40975;50.390;8.640;2023-04-05T09:24:40;99718.94;;;18.16;28.19
54389;BME280;40975;50.390;8.640;2023-04-05T09:27:13;99714.28;;;18.33;29.02
54389;BME280;40975;50.390;8.640;2023-04-05T09:29:42;99716.25;;;18.69;30.89
54389;BME280;40975;50.390;8.640;2023-04-05T09:32:09;99711.16;;;18.74;30.28
54389;BME280;40975;50.390;8.640;2023-04-05T09:34:35;99701.69;;;18.93;28.33
54389;BME280;40975;50.390;8.640;2023-04-05T09:37:10;99706.97;;;19.75;27.57
54389;BME280;40975;50.390;8.640;2023-04-05T09:39:37;99717.56;;;18.73;28.79
54389;BME280;40975;50.390;8.640;2023-04-05T09:42:13;99713.94;;;18.81;28.65
54389;BME280;40975;50.390;8.640;2023-04-05T09:47:17;99707.63;;;19.04;29.00
54389;BME280;40975;50.390;8.640;2023-04-05T09:49:43;99699.53;;;18.89;27.95
54389;BME280;40975;50.390;8.640;2023-04-05T09:52:22;99703.16;;;19.26;29.23
54389;BME280;40975;50.390;8.640;2023-04-05T09:54:50;99700.31;;;19.71;29.00
54389;BME280;40975;50.390;8.640;2023-04-05T09:57:16;99696.19;;;19.75;29.98
54389;BME280;40975;50.390;8.640;2023-04-05T09:59:45;99700.63;;;19.24;29.08
54389;BME280;40975;50.390;8.640;2023-04-05T10:02:11;99706.34;;;19.00;29.33
54389;BME280;40975;50.390;8.640;2023-04-05T10:04:40;99706.13;;;19.16;29.89
54389;BME280;40975;50.390;8.640;2023-04-05T10:07:08;99694.13;;;19.34;30.23
54389;BME280;40975;50.390;8.640;2023-04-05T10:09:34;99693.63;;;18.48;30.25
54389;BME280;40975;50.390;8.640;2023-04-05T10:12:01;99692.91;;;18.70;28.33
54389;BME280;40975;50.390;8.640;2023-04-05T10:14:26;99697.81;;;19.11;30.75
54389;BME280;40975;50.390;8.640;2023-04-05T10:16:59;99695.13;;;19.11;30.81
54389;BME280;40975;50.390;8.640;2023-04-05T10:19:38;99698.09;;;19.01;31.04
54389;BME280;40975;50.390;8.640;2023-04-05T10:22:13;99692.13;;;18.61;29.62
54389;BME280;40975;50.390;8.640;2023-04-05T10:24:47;99677.22;;;18.58;31.02
54389;BME280;40975;50.390;8.640;2023-04-05T10:27:22;99685.09;;;18.45;31.65
54389;BME280;40975;50.390;8.640;2023-04-05T10:30:13;99670.38;;;18.02;31.98
54389;BME280;40975;50.390;8.640;2023-04-05T10:32:51;99670.63;;;18.46;28.97
54389;BME280;40975;50.390;8.640;2023-04-05T10:35:33;99676.75;;;18.25;31.58
54389;BME280;40975;50.390;8.640;2023-04-05T10:38:20;99678.31;;;17.96;31.33
54389;BME280;40975;50.390;8.640;2023-04-05T10:40:48;99670.34;;;17.09;31.48
54389;BME280;40975;50.390;8.640;2023-04-05T10:43:20;99670.47;;;17.71;32.50
54389;BME280;40975;50.390;8.640;2023-04-05T10:45:48;99656.09;;;16.69;30.12
54389;BME280;40975;50.390;8.640;2023-04-05T10:48:45;99659.25;;;17.13;32.59
54389;BME280;40975;50.390;8.640;2023-04-05T10:51:13;99651.75;;;16.68;31.73
54389;BME280;40975;50.390;8.640;2023-04-05T10:53:39;99656.75;;;15.98;30.25
54389;BME280;40975;50.390;8.640;2023-04-05T10:56:05;99645.53;;;15.95;31.90
54389;BME280;40975;50.390;8.640;2023-04-05T10:58:31;99642.50;;;15.40;30.25
54389;BME280;40975;50.390;8.640;2023-04-05T11:00:57;99645.16;;;15.32;32.34
54389;BME280;40975;50.390;8.640;2023-04-05T11:06:30;99646.81;;;14.73;36.42
54389;BME280;40975;50.390;8.640;2023-04-05T11:09:15;99639.50;;;15.51;34.40
54389;BME280;40975;50.390;8.640;2023-04-05T11:11:50;99639.94;;;15.22;33.12
54389;BME280;40975;50.390;8.640;2023-04-05T11:16:45;99637.16;;;13.93;33.90
54389;BME280;40975;50.390;8.640;2023-04-05T11:19:11;99635.28;;;13.86;34.14
54389;BME280;40975;50.390;8.640;2023-04-05T11:21:36;99631.34;;;12.89;34.96
54389;BME280;40975;50.390;8.640;2023-04-05T11:24:07;99633.63;;;13.30;35.16
54389;BME280;40975;50.390;8.640;2023-04-05T11:26:51;99617.59;;;12.66;34.77
54389;BME280;40975;50.390;8.640;2023-04-05T11:29:19;99634.84;;;13.54;35.81
54389;BME280;40975;50.390;8.640;2023-04-05T11:32:10;99623.16;;;12.73;33.27
54389;BME280;40975;50.390;8.640;2023-04-05T11:34:36;99619.63;;;12.44;35.73
54389;BME280;40975;50.390;8.640;2023-04-05T11:37:02;99625.66;;;12.74;35.89
54389;BME280;40975;50.390;8.640;2023-04-05T11:39:27;99621.38;;;12.64;36.11
54389;BME280;40975;50.390;8.640;2023-04-05T11:44:42;99615.16;;;12.07;39.24
54389;BME280;40975;50.390;8.640;2023-04-05T11:47:08;99614.19;;;11.79;38.00
54389;BME280;40975;50.390;8.640;2023-04-05T11:49:35;99613.56;;;12.24;40.61
54389;BME280;40975;50.390;8.640;2023-04-05T11:52:10;99607.31;;;12.06;38.08
54389;BME280;40975;50.390;8.640;2023-04-05T11:54:36;99592.06;;;11.98;40.41
54389;BME280;40975;50.390;8.640;2023-04-05T11:57:01;99597.19;;;12.19;36.83
54389;BME280;40975;50.390;8.640;2023-04-05T11:59:34;99588.84;;;11.85;38.84
54389;BME280;40975;50.390;8.640;2023-04-05T12:02:03;99594.75;;;11.78;38.33
54389;BME280;40975;50.390;8.640;2023-04-05T12:04:36;99585.50;;;12.02;37.30
54389;BME280;40975;50.390;8.640;2023-04-05T12:07:14;99590.16;;;12.56;38.63
54389;BME280;40975;50.390;8.640;2023-04-05T12:10:18;99570.25;;;11.75;36.34
54389;BME280;40975;50.390;8.640;2023-04-05T12:12:45;99579.53;;;12.18;37.12
54389;BME280;40975;50.390;8.640;2023-04-05T12:15:13;99576.53;;;11.83;36.13
54389;BME280;40975;50.390;8.640;2023-04-05T12:17:51;99570.44;;;11.34;36.63
54389;BME280;40975;50.390;8.640;2023-04-05T12:20:21;99577.53;;;11.82;36.31
54389;BME280;40975;50.390;8.640;2023-04-05T12:22:48;99575.69;;;12.03;36.41
54389;BME280;40975;50.390;8.640;2023-04-05T12:25:17;99567.75;;;11.63;36.80
54389;BME280;40975;50.390;8.640;2023-04-05T12:27:43;99566.38;;;11.20;35.39
54389;BME280;40975;50.390;8.640;2023-04-05T12:30:19;99558.56;;;11.09;34.59
54389;BME280;40975;50.390;8.640;2023-04-05T12:35:11;99556.44;;;11.61;36.77
54389;BME280;40975;50.390;8.640;2023-04-05T12:37:38;99555.06;;;11.28;35.11
54389;BME280;40975;50.390;8.640;2023-04-05T12:40:04;99553.22;;;10.79;37.90
54389;BME280;40975;50.390;8.640;2023-04-05T12:42:32;99557.31;;;11.32;42.53
54389;BME280;40975;50.390;8.640;2023-04-05T12:45:02;99548.91;;;11.17;38.56
54389;BME280;40975;50.390;8.640;2023-04-05T12:47:29;99551.13;;;10.83;40.89
54389;BME280;40975;50.390;8.640;2023-04-05T12:49:56;99546.63;;;10.64;38.90
54389;BME280;40975;50.390;8.640;2023-04-05T12:52:21;99546.19;;;10.18;37.18
54389;BME280;40975;50.390;8.640;2023-04-05T12:54:53;99540.00;;;10.38;41.17
54389;BME280;40975;50.390;8.640;2023-04-05T12:57:28;99543.69;;;10.57;40.17
54389;BME280;40975;50.390;8.640;2023-04-05T12:59:54;99535.91;;;10.95;38.52
54389;BME280;40975;50.390;8.640;2023-04-05T13:02:19;99526.69;;;11.18;37.35
54389;BME280;40975;50.390;8.640;2023-04-05T13:04:44;99534.09;;;11.25;38.07
54389;BME280;40975;50.390;8.640;2023-04-05T13:07:10;99534.09;;;11.25;36.76
54389;BME280;40975;50.390;8.640;2023-04-05T13:09:35;99525.56;;;10.72;35.99
54389;BME280;40975;50.390;8.640;2023-04-05T13:12:01;99523.13;;;10.49;37.39
54389;BME280;40975;50.390;8.640;2023-04-05T13:14:26;99524.97;;;10.68;38.41
54389;BME280;40975;50.390;8.640;2023-04-05T13:16:51;99522.72;;;10.54;37.33
54389;BME280;40975;50.390;8.640;2023-04-05T13:19:17;99515.16;;;10.49;38.42
54389;BME280;40975;50.390;8.640;2023-04-05T13:21:42;99516.84;;;10.60;36.01